Condor Express — 9V5373 — position and weather

sailwx.info

Track history (hours):
 
Tides and Currents Weather Stations Pressure Air Temp Water Temp Dewpoint Dewpoint Depression Visibility Wind Speed Wind Dir Waves Ship Positions

Condor Express

Operator: Condor Marine Services

Last reported at 2019-Oct-08 03:02 UTC. Time now 2019-Oct-18 23:46 UTC.
Position N 24°40' E 122°38'.
Warning: this ship's position is 10 days out of date.

Length 235 m; draft 7.7 m.

Type: Cargo ship. MMSI: 563014500.

Date/timePositionNaut miles runAvg speedWind from/ knotsBaromVisibWave heightAir tempDewpointWater temp
2019-Oct-08 03:02N 24°40' E 122°38'211.2
2019-Oct-08 02:52N 24°42' E 122°37'2111.5
2019-Oct-08 01:02N 25°02' E 122°30'311.2
2019-Oct-08 00:48N 25°05' E 122°29'511.2
2019-Oct-08 00:22N 25°09' E 122°26'510.4
2019-Oct-07 23:52N 25°14' E 122°24'410.4
2019-Oct-07 23:26N 25°18' E 122°22'510.6
2019-Oct-07 22:57N 25°22' E 122°20'511.4
2019-Oct-07 22:29N 25°27' E 122°18'712.6
2019-Oct-07 21:58N 25°33' E 122°15'911.8
2019-Oct-07 21:14N 25°42' E 122°12'310.9
2019-Oct-07 20:59N 25°44' E 122°11'2510.2
2019-Oct-07 18:35N 25°51' E 121°45'711.0
2019-Oct-07 17:59N 25°53' E 121°38'711.0
2019-Oct-07 17:22N 25°54' E 121°30'2210.9
2019-Oct-07 15:22N 25°58' E 121°07'811.9
2019-Oct-07 14:41N 26°01' E 120°58'  
Track history (hours):
 
Tides and Currents Weather Stations Pressure Air Temp Water Temp Dewpoint Dewpoint Depression Visibility Wind Speed Wind Dir Waves Ship Positions

Condor Express

Operator: Condor Marine Services

Last reported at 2019-Oct-08 03:02 UTC. Time now 2019-Oct-18 23:46 UTC.
Position N 24°40' E 122°38'.
Warning: this ship's position is 10 days out of date.

Length 235 m; draft 7.7 m.

Type: Cargo ship. MMSI: 563014500.

Date/timePositionNaut miles runAvg speedWind from/ knotsBaromVisibWave heightAir tempDewpointWater temp
2019-Oct-08 03:02N 24°40' E 122°38'211.2
2019-Oct-08 02:52N 24°42' E 122°37'2111.5
2019-Oct-08 01:02N 25°02' E 122°30'311.2
2019-Oct-08 00:48N 25°05' E 122°29'511.2
2019-Oct-08 00:22N 25°09' E 122°26'510.4
2019-Oct-07 23:52N 25°14' E 122°24'410.4
2019-Oct-07 23:26N 25°18' E 122°22'510.6
2019-Oct-07 22:57N 25°22' E 122°20'511.4
2019-Oct-07 22:29N 25°27' E 122°18'712.6
2019-Oct-07 21:58N 25°33' E 122°15'911.8
2019-Oct-07 21:14N 25°42' E 122°12'310.9
2019-Oct-07 20:59N 25°44' E 122°11'2510.2
2019-Oct-07 18:35N 25°51' E 121°45'711.0
2019-Oct-07 17:59N 25°53' E 121°38'711.0
2019-Oct-07 17:22N 25°54' E 121°30'2210.9
2019-Oct-07 15:22N 25°58' E 121°07'811.9
2019-Oct-07 14:41N 26°01' E 120°58'  

Dump ship's entire track history